createdAt,value
2022-09-12T00:01:11.421Z,1.97
2022-09-12T00:05:43.784Z,1.90
2022-09-12T00:10:09.304Z,2.10
2022-09-12T00:14:34.725Z,1.80
2022-09-12T00:19:01.260Z,1.70
2022-09-12T00:23:26.438Z,2.00
2022-09-12T00:27:51.631Z,1.70
2022-09-12T00:32:16.949Z,2.00
2022-09-12T00:36:42.304Z,1.87
2022-09-12T00:41:09.990Z,1.87
2022-09-12T00:45:35.340Z,2.00
2022-09-12T00:50:19.205Z,1.60
2022-09-12T00:54:55.512Z,1.60
2022-09-12T00:59:27.074Z,1.77
2022-09-12T01:03:52.305Z,2.30
2022-09-12T01:08:18.021Z,2.00
2022-09-12T01:12:44.817Z,2.03
2022-09-12T01:17:16.793Z,2.00
2022-09-12T01:22:06.588Z,1.77
2022-09-12T01:26:46.711Z,1.70
2022-09-12T01:32:02.792Z,1.73
2022-09-12T01:36:39.861Z,2.07
2022-09-12T01:45:47.368Z,1.60
2022-09-12T01:54:59.488Z,1.53
2022-09-12T01:59:37.317Z,1.73
2022-09-12T02:04:25.007Z,1.70
2022-09-12T02:10:00.501Z,1.63
2022-09-12T02:14:37.025Z,1.60
2022-09-12T02:19:24.628Z,1.80
2022-09-12T02:23:57.948Z,1.57
2022-09-12T02:28:33.047Z,2.00
2022-09-12T02:33:38.731Z,2.00
2022-09-12T02:38:36.635Z,1.80
2022-09-12T02:43:04.969Z,1.93
2022-09-12T02:47:49.432Z,1.90
2022-09-12T03:06:33.438Z,1.80
2022-09-12T03:11:26.479Z,1.70
2022-09-12T03:16:06.571Z,1.80
2022-09-12T03:21:26.247Z,1.87
2022-09-12T03:26:03.133Z,1.83
2022-09-12T03:30:28.826Z,1.77
2022-09-12T03:34:54.105Z,1.83
2022-09-12T03:39:20.362Z,2.20
2022-09-12T03:43:46.403Z,2.40
2022-09-12T03:48:11.872Z,2.20
2022-09-12T03:52:37.155Z,2.10
2022-09-12T03:57:02.343Z,1.80
2022-09-12T04:01:27.610Z,1.73
2022-09-12T04:05:52.849Z,2.00
2022-09-12T04:10:18.181Z,1.73
2022-09-12T04:14:43.451Z,2.00
2022-09-12T04:19:11.449Z,1.90
2022-09-12T04:23:36.909Z,1.70
2022-09-12T04:28:02.315Z,1.90
2022-09-12T04:32:29.748Z,1.83
2022-09-12T04:36:54.928Z,1.70
2022-09-12T04:41:30.912Z,2.13
2022-09-12T04:45:56.155Z,1.93
2022-09-12T04:50:21.582Z,1.87
2022-09-12T04:59:15.350Z,1.87
2022-09-12T05:03:43.422Z,2.37
2022-09-12T05:08:08.618Z,2.10
2022-09-12T05:12:33.965Z,2.30
2022-09-12T05:17:01.299Z,2.13
2022-09-12T05:21:27.989Z,2.50
2022-09-12T05:25:55.909Z,2.30
2022-09-12T05:34:47.369Z,2.33
2022-09-12T05:39:12.751Z,2.30
2022-09-12T05:43:40.041Z,2.47
2022-09-12T05:48:05.316Z,2.27
2022-09-12T05:52:32.677Z,2.90
2022-09-12T05:56:57.925Z,3.07
2022-09-12T06:01:24.244Z,2.90
2022-09-12T06:05:50.775Z,2.47
2022-09-12T06:10:16.105Z,3.60
2022-09-12T06:14:41.399Z,3.10
2022-09-12T06:19:21.540Z,2.83
2022-09-12T06:23:48.060Z,3.23
2022-09-12T06:28:13.258Z,3.73
2022-09-12T06:32:38.440Z,3.53
2022-09-12T06:37:04.024Z,4.00
2022-09-12T06:41:31.243Z,4.90
2022-09-12T06:45:56.679Z,5.73
2022-09-12T06:50:22.073Z,7.17
2022-09-12T06:54:47.525Z,7.90
2022-09-12T06:59:12.856Z,10.27
2022-09-12T07:03:39.118Z,11.23
2022-09-12T07:08:04.414Z,11.70
2022-09-12T07:12:30.113Z,10.80
2022-09-12T07:16:55.375Z,9.70
2022-09-12T07:21:21.359Z,10.07
2022-09-12T07:25:57.152Z,11.50
2022-09-12T07:30:23.121Z,11.60
2022-09-12T07:34:49.302Z,10.80
2022-09-12T07:39:14.525Z,8.70
2022-09-12T07:43:40.307Z,8.20
2022-09-12T07:48:05.565Z,8.00
2022-09-12T07:52:31.150Z,7.67
2022-09-12T07:56:56.556Z,5.63
2022-09-12T08:01:23.444Z,4.93
2022-09-12T08:05:48.759Z,4.20
2022-09-12T08:10:14.144Z,3.97
2022-09-12T08:14:39.497Z,4.10
2022-09-12T08:19:05.100Z,3.43
2022-09-12T08:23:32.034Z,2.70
2022-09-12T08:27:57.446Z,2.27
2022-09-12T08:32:22.651Z,2.10
2022-09-12T08:36:48.216Z,1.80
2022-09-12T08:41:27.283Z,2.03
2022-09-12T08:46:21.744Z,1.53
2022-09-12T08:50:49.903Z,1.40
2022-09-12T08:55:59.593Z,1.80
2022-09-12T09:00:56.023Z,1.83
2022-09-12T09:06:02.695Z,1.37
2022-09-12T09:10:52.674Z,1.87
2022-09-12T09:15:34.342Z,1.57
2022-09-12T09:20:15.211Z,1.57
2022-09-12T09:24:49.499Z,1.67
2022-09-12T09:29:28.193Z,1.50
2022-09-12T09:33:58.628Z,1.83
2022-09-12T09:38:24.025Z,1.73
2022-09-12T09:42:57.195Z,1.50
2022-09-12T09:47:22.924Z,1.53
2022-09-12T09:51:49.624Z,1.60
2022-09-12T09:56:28.523Z,1.83
2022-09-12T10:01:04.394Z,1.77
2022-09-12T10:05:31.384Z,1.57
2022-09-12T10:10:19.598Z,1.60
2022-09-12T10:15:01.651Z,1.70
2022-09-12T10:19:40.256Z,1.53
2022-09-12T10:24:32.960Z,1.50
2022-09-12T10:28:58.467Z,1.93
2022-09-12T10:33:26.181Z,1.53
2022-09-12T10:38:06.864Z,1.37
2022-09-12T10:42:53.553Z,1.80
2022-09-12T10:47:28.153Z,1.80
2022-09-12T10:51:55.075Z,1.53
2022-09-12T10:56:23.370Z,1.60
2022-09-12T11:00:59.643Z,1.57
2022-09-12T11:05:37.388Z,1.50
2022-09-12T11:10:25.369Z,1.60
2022-09-12T11:15:00.513Z,1.70
2022-09-12T11:19:47.182Z,1.47
2022-09-12T11:24:41.344Z,1.30
2022-09-12T11:29:25.943Z,1.53
2022-09-12T11:33:56.517Z,1.47
2022-09-12T11:39:01.911Z,1.30
2022-09-12T11:43:40.639Z,1.57
2022-09-12T11:48:13.422Z,1.60
2022-09-12T11:52:39.927Z,1.23
2022-09-12T11:57:28.197Z,1.60
2022-09-12T12:02:00.138Z,1.40
2022-09-12T12:06:35.606Z,1.37
2022-09-12T12:11:03.216Z,1.50
2022-09-12T12:15:29.815Z,1.40
2022-09-12T12:20:07.493Z,1.40
2022-09-12T12:24:34.200Z,1.43
2022-09-12T12:28:59.940Z,1.37
2022-09-12T12:33:25.204Z,1.57
2022-09-12T12:37:53.124Z,1.70
2022-09-12T12:42:36.375Z,1.40
2022-09-12T12:47:27.483Z,1.50
2022-09-12T12:52:01.497Z,1.40
2022-09-12T12:56:43.097Z,1.40
2022-09-12T13:01:14.847Z,1.40
2022-09-12T13:05:45.752Z,1.50
2022-09-12T13:10:29.563Z,1.37
2022-09-12T13:14:54.822Z,1.30
2022-09-12T13:19:33.309Z,1.50
2022-09-12T13:24:16.155Z,1.50
2022-09-12T13:28:41.557Z,1.30
2022-09-12T13:33:35.331Z,1.40
2022-09-12T13:38:30.115Z,1.43
2022-09-12T13:43:18.055Z,1.20
2022-09-12T13:47:54.289Z,1.13
2022-09-12T13:52:31.068Z,1.27
2022-09-12T13:56:56.985Z,1.30
2022-09-12T14:01:24.157Z,1.20
2022-09-12T14:05:58.282Z,1.60
2022-09-12T14:10:39.649Z,1.27
2022-09-12T14:15:07.061Z,1.10
2022-09-12T14:19:34.483Z,1.40
2022-09-12T14:24:01.289Z,1.40
2022-09-12T14:28:31.160Z,1.37
2022-09-12T14:33:11.475Z,1.30
2022-09-12T14:37:37.756Z,1.23
2022-09-12T14:42:19.538Z,1.30
2022-09-12T14:46:45.285Z,1.40
2022-09-12T14:51:35.577Z,1.50
2022-09-12T14:56:12.520Z,1.23
2022-09-12T15:00:37.762Z,1.30
2022-09-12T15:05:09.767Z,1.50
2022-09-12T15:09:35.331Z,1.30
2022-09-12T15:14:13.257Z,1.40
2022-09-12T15:18:38.612Z,1.40
2022-09-12T15:23:04.831Z,1.60
2022-09-12T15:27:30.080Z,1.47
2022-09-12T15:31:55.318Z,1.80
2022-09-12T15:36:22.945Z,1.63
2022-09-12T15:40:56.256Z,1.40
2022-09-12T15:45:24.032Z,1.63
2022-09-12T15:49:49.253Z,1.43
2022-09-12T15:54:17.359Z,1.80
2022-09-12T15:58:54.983Z,1.30
2022-09-12T16:03:27.538Z,1.30
2022-09-12T16:07:54.672Z,1.70
2022-09-12T16:12:19.876Z,1.63
2022-09-12T16:16:54.043Z,1.30
2022-09-12T16:21:19.337Z,1.43
2022-09-12T16:25:44.830Z,1.50
2022-09-12T16:30:10.893Z,1.57
2022-09-12T16:34:36.151Z,1.57
2022-09-12T16:39:01.669Z,1.50
2022-09-12T16:43:26.920Z,1.70
2022-09-12T16:47:52.081Z,1.73
2022-09-12T16:52:17.749Z,1.60
2022-09-12T16:56:43.911Z,1.57
2022-09-12T17:01:20.201Z,1.50
2022-09-12T17:05:45.572Z,1.57
2022-09-12T17:10:10.821Z,1.43
2022-09-12T17:14:36.201Z,1.80
2022-09-12T17:19:01.595Z,1.67
2022-09-12T17:23:27.150Z,1.37
2022-09-12T17:27:52.408Z,1.80
2022-09-12T17:32:17.825Z,1.73
2022-09-12T17:36:44.734Z,1.70
2022-09-12T17:41:24.456Z,2.07
2022-09-12T17:45:59.077Z,1.80
2022-09-12T17:50:32.890Z,1.70
2022-09-12T17:54:59.977Z,1.58
2022-09-12T17:59:25.436Z,1.70
2022-09-12T18:03:55.573Z,2.27
2022-09-12T18:08:23.186Z,1.77
2022-09-12T18:12:48.632Z,1.67
2022-09-12T18:17:13.898Z,1.70
2022-09-12T18:21:39.841Z,1.93
2022-09-12T18:26:10.513Z,1.60
2022-09-12T18:30:35.716Z,1.90
2022-09-12T18:35:01.478Z,1.70
2022-09-12T18:39:28.029Z,1.63
2022-09-12T18:43:58.985Z,1.93
2022-09-12T18:48:24.177Z,1.77
2022-09-12T18:52:56.629Z,1.87
2022-09-12T18:57:25.477Z,2.03
2022-09-12T19:01:50.826Z,1.60
2022-09-12T19:06:30.438Z,2.00
2022-09-12T19:10:56.912Z,2.10
2022-09-12T19:15:22.121Z,2.00
2022-09-12T19:19:47.356Z,1.90
2022-09-12T19:24:15.157Z,2.17
2022-09-12T19:28:41.226Z,2.30
2022-09-12T19:33:06.555Z,2.33
2022-09-12T19:37:32.155Z,2.07
2022-09-12T19:41:57.594Z,2.23
2022-09-12T19:46:25.650Z,2.30
2022-09-12T19:50:51.028Z,2.05
2022-09-12T19:55:16.628Z,2.13
2022-09-12T19:59:42.674Z,1.90
2022-09-12T20:04:07.939Z,2.00
2022-09-12T20:08:34.256Z,2.20
2022-09-12T20:12:59.494Z,2.10
2022-09-12T20:17:24.754Z,1.97
2022-09-12T20:21:49.914Z,2.17
2022-09-12T20:26:15.232Z,2.50
2022-09-12T20:30:40.442Z,2.20
2022-09-12T20:35:07.664Z,1.70
2022-09-12T20:39:32.854Z,1.90
2022-09-12T20:43:58.856Z,2.40
2022-09-12T20:48:24.987Z,2.50
2022-09-12T20:52:50.186Z,1.97
2022-09-12T20:57:15.520Z,2.00
2022-09-12T21:01:40.792Z,2.33
2022-09-12T21:06:08.022Z,2.10
2022-09-12T21:10:33.386Z,2.10
2022-09-12T21:14:58.557Z,1.90
2022-09-12T21:19:23.807Z,2.33
2022-09-12T21:23:50.961Z,2.00
2022-09-12T21:28:17.374Z,2.20
2022-09-12T21:32:42.760Z,2.60
2022-09-12T21:37:08.087Z,2.10
2022-09-12T21:41:34.418Z,2.20
2022-09-12T21:46:00.800Z,2.20
2022-09-12T21:50:26.257Z,2.20
2022-09-12T21:54:51.462Z,1.97
2022-09-12T21:59:16.647Z,2.10
2022-09-12T22:03:43.188Z,1.63
2022-09-12T22:08:09.791Z,1.90
2022-09-12T22:12:35.077Z,2.10
2022-09-12T22:17:00.361Z,1.90
2022-09-12T22:21:25.569Z,1.73
2022-09-12T22:25:50.788Z,2.10
2022-09-12T22:30:16.302Z,1.93
2022-09-12T22:34:41.552Z,2.03
2022-09-12T22:39:07.656Z,1.93
2022-09-12T22:43:34.746Z,1.80
2022-09-12T22:48:00.996Z,1.83
2022-09-12T22:52:26.505Z,2.00
2022-09-12T22:56:51.709Z,1.80
2022-09-12T23:01:18.383Z,2.07
2022-09-12T23:05:44.851Z,1.70
2022-09-12T23:10:10.689Z,3.00
2022-09-12T23:14:35.886Z,1.93
2022-09-12T23:19:01.148Z,2.40
2022-09-12T23:23:26.863Z,2.03
2022-09-12T23:27:52.512Z,1.93
2022-09-12T23:32:25.212Z,1.80
2022-09-12T23:36:50.414Z,2.13
2022-09-12T23:41:18.309Z,2.07
2022-09-12T23:45:43.506Z,2.10
2022-09-12T23:50:09.015Z,2.13
2022-09-12T23:54:34.221Z,2.23
2022-09-12T23:58:59.437Z,2.33
